Time;durP1;ratioP1;P1;durP2;ratioP2;P2;SDS_P1;SDS_P2;PMS_P1;PMS_P2;Temp;Humidity;BMP_temperature;BMP_pressure;BME280_temperature;BME280_humidity;BME280_pressure;Samples;Min_cycle;Max_cycle;Signal;HPM_P1;HPM_P2
2021/04/10 00:00:00;;;;;;;6.15;3.1;;;;;;;5.96;38.62305;94971.22;;;;
2021/04/10 00:01:00;;;;;;;6.15;3.1;;;;;;;5.96;38.62305;94971.22;;;;
2021/04/10 00:02:03;;;;;;;6.15;3.1;;;;;;;5.96;38.62305;94971.22;;;;
2021/04/10 00:03:04;;;;;;;6.15;3.1;;;;;;;5.96;38.62305;94971.22;;;;
2021/04/10 00:04:05;;;;;;;6.15;3.1;;;;;;;5.96;38.62305;94971.22;;;;
2021/04/10 00:05:07;;;;;;;3.85;2.55;;;;;;;5.85;38.96582;94967.91;;;;
2021/04/10 00:06:09;;;;;;;3.85;2.55;;;;;;;5.85;38.96582;94967.91;;;;
2021/04/10 00:07:10;;;;;;;3.85;2.55;;;;;;;5.85;38.96582;94967.91;;;;
2021/04/10 00:08:12;;;;;;;3.85;2.55;;;;;;;5.85;38.96582;94967.91;;;;
2021/04/10 00:09:12;;;;;;;3.85;2.55;;;;;;;5.85;38.96582;94967.91;;;;
2021/04/10 00:10:13;;;;;;;3.85;2.55;;;;;;;5.85;38.96582;94967.91;;;;
2021/04/10 00:11:14;;;;;;;3.85;2.55;;;;;;;5.85;38.96582;94967.91;;;;
2021/04/10 00:12:15;;;;;;;3.85;2.55;;;;;;;5.85;38.96582;94967.91;;;;
2021/04/10 00:13:15;;;;;;;3.85;2.55;;;;;;;5.85;38.96582;94967.91;;;;
2021/04/10 00:14:16;;;;;;;3.85;2.55;;;;;;;5.85;38.96582;94967.91;;;;
2021/04/10 00:15:16;;;;;;;4.35;2.85;;;;;;;5.69;39.19727;94959.38;;;;
2021/04/10 00:16:20;;;;;;;4.35;2.85;;;;;;;5.69;39.19727;94959.38;;;;
2021/04/10 00:17:20;;;;;;;4.35;2.85;;;;;;;5.69;39.19727;94959.38;;;;
2021/04/10 00:18:21;;;;;;;4.35;2.85;;;;;;;5.69;39.19727;94959.38;;;;
2021/04/10 00:19:21;;;;;;;4.35;2.85;;;;;;;5.69;39.19727;94959.38;;;;
2021/04/10 00:20:22;;;;;;;4.35;2.85;;;;;;;5.69;39.19727;94959.38;;;;
2021/04/10 00:21:23;;;;;;;4.35;2.85;;;;;;;5.69;39.19727;94959.38;;;;
2021/04/10 00:22:24;;;;;;;4.35;2.85;;;;;;;5.69;39.19727;94959.38;;;;
2021/04/10 00:23:24;;;;;;;4.35;2.85;;;;;;;5.69;39.19727;94959.38;;;;
2021/04/10 00:24:25;;;;;;;4.35;2.85;;;;;;;5.69;39.19727;94959.38;;;;
2021/04/10 00:25:26;;;;;;;4.35;2.85;;;;;;;5.69;39.19727;94959.38;;;;
2021/04/10 00:26:26;;;;;;;3.2;2.75;;;;;;;5.5;39.52148;94956.3;;;;
2021/04/10 00:27:27;;;;;;;3.2;2.75;;;;;;;5.5;39.52148;94956.3;;;;
2021/04/10 00:28:27;;;;;;;3.2;2.75;;;;;;;5.5;39.52148;94956.3;;;;
2021/04/10 00:29:28;;;;;;;3.2;2.75;;;;;;;5.5;39.52148;94956.3;;;;
2021/04/10 00:30:28;;;;;;;3.2;2.75;;;;;;;5.5;39.52148;94956.3;;;;
2021/04/10 00:31:29;;;;;;;3.2;2.75;;;;;;;5.5;39.52148;94956.3;;;;
2021/04/10 00:32:29;;;;;;;3.2;2.75;;;;;;;5.5;39.52148;94956.3;;;;
2021/04/10 00:33:30;;;;;;;3.2;2.75;;;;;;;5.5;39.52148;94956.3;;;;
2021/04/10 00:34:30;;;;;;;3.2;2.75;;;;;;;5.5;39.52148;94956.3;;;;
2021/04/10 00:35:31;;;;;;;3.2;2.75;;;;;;;5.5;39.52148;94956.3;;;;
2021/04/10 00:36:31;;;;;;;3.6;2.65;;;;;;;5.38;39.80957;94941.94;;;;
2021/04/10 00:37:32;;;;;;;3.6;2.65;;;;;;;5.38;39.80957;94941.94;;;;
2021/04/10 00:38:33;;;;;;;3.6;2.65;;;;;;;5.38;39.80957;94941.94;;;;
2021/04/10 00:39:35;;;;;;;3.6;2.65;;;;;;;5.38;39.80957;94941.94;;;;
2021/04/10 00:40:36;;;;;;;3.6;2.65;;;;;;;5.38;39.80957;94941.94;;;;
2021/04/10 00:41:36;;;;;;;3.6;2.65;;;;;;;5.38;39.80957;94941.94;;;;
2021/04/10 00:42:37;;;;;;;3.6;2.65;;;;;;;5.38;39.80957;94941.94;;;;
2021/04/10 00:43:38;;;;;;;3.6;2.65;;;;;;;5.38;39.80957;94941.94;;;;
2021/04/10 00:44:39;;;;;;;3.6;2.65;;;;;;;5.38;39.80957;94941.94;;;;
2021/04/10 00:45:40;;;;;;;3.6;2.65;;;;;;;5.38;39.80957;94941.94;;;;
2021/04/10 00:46:40;;;;;;;3.6;2.65;;;;;;;5.38;39.80957;94941.94;;;;
2021/04/10 00:47:41;;;;;;;3.15;2.5;;;;;;;5.14;39.91602;94937.61;;;;
2021/04/10 00:48:41;;;;;;;3.15;2.5;;;;;;;5.14;39.91602;94937.61;;;;
2021/04/10 00:49:42;;;;;;;3.15;2.5;;;;;;;5.14;39.91602;94937.61;;;;
2021/04/10 00:50:42;;;;;;;3.15;2.5;;;;;;;5.14;39.91602;94937.61;;;;
2021/04/10 00:51:43;;;;;;;3.15;2.5;;;;;;;5.14;39.91602;94937.61;;;;
2021/04/10 00:52:43;;;;;;;3.15;2.5;;;;;;;5.14;39.91602;94937.61;;;;
2021/04/10 00:53:45;;;;;;;3.15;2.5;;;;;;;5.14;39.91602;94937.61;;;;
2021/04/10 00:54:46;;;;;;;3.15;2.5;;;;;;;5.14;39.91602;94937.61;;;;
2021/04/10 00:55:48;;;;;;;3.15;2.5;;;;;;;5.14;39.91602;94937.61;;;;
2021/04/10 00:56:52;;;;;;;3.15;2.5;;;;;;;5.14;39.91602;94937.61;;;;
2021/04/10 00:57:52;;;;;;;3.9;2.900001;;;;;;;4.83;40.11133;94933.04;;;;
2021/04/10 00:58:53;;;;;;;3.9;2.900001;;;;;;;4.83;40.11133;94933.04;;;;
2021/04/10 00:59:54;;;;;;;3.9;2.900001;;;;;;;4.83;40.11133;94933.04;;;;
2021/04/10 01:00:54;;;;;;;3.9;2.900001;;;;;;;4.83;40.11133;94933.04;;;;
2021/04/10 01:01:55;;;;;;;3.9;2.900001;;;;;;;4.83;40.11133;94933.04;;;;
2021/04/10 01:02:55;;;;;;;3.9;2.900001;;;;;;;4.83;40.11133;94933.04;;;;
2021/04/10 01:03:56;;;;;;;3.9;2.900001;;;;;;;4.83;40.11133;94933.04;;;;
2021/04/10 01:04:58;;;;;;;3.9;2.900001;;;;;;;4.83;40.11133;94933.04;;;;
2021/04/10 01:05:58;;;;;;;3.9;2.900001;;;;;;;4.83;40.11133;94933.04;;;;
2021/04/10 01:06:59;;;;;;;3.9;2.900001;;;;;;;4.83;40.11133;94933.04;;;;
2021/04/10 01:08:00;;;;;;;3.9;2.900001;;;;;;;4.83;40.11133;94933.04;;;;
2021/04/10 01:09:01;;;;;;;4.45;2.35;;;;;;;4.49;40.46191;94939.58;;;;
2021/04/10 01:10:02;;;;;;;4.45;2.35;;;;;;;4.49;40.46191;94939.58;;;;
2021/04/10 01:11:03;;;;;;;4.45;2.35;;;;;;;4.49;40.46191;94939.58;;;;
2021/04/10 01:12:14;;;;;;;4.45;2.35;;;;;;;4.49;40.46191;94939.58;;;;
2021/04/10 01:13:28;;;;;;;4.45;2.35;;;;;;;4.49;40.46191;94939.58;;;;
2021/04/10 01:14:39;;;;;;;4.45;2.35;;;;;;;4.49;40.46191;94939.58;;;;
2021/04/10 01:15:51;;;;;;;4.45;2.35;;;;;;;4.49;40.46191;94939.58;;;;
2021/04/10 01:16:59;;;;;;;4.45;2.35;;;;;;;4.49;40.46191;94939.58;;;;
2021/04/10 01:18:05;;;;;;;4.45;2.35;;;;;;;4.49;40.46191;94939.58;;;;
2021/04/10 01:19:11;;;;;;;3.95;2.9;;;;;;;4.2;40.80762;94942.16;;;;
2021/04/10 01:20:25;;;;;;;3.95;2.9;;;;;;;4.2;40.80762;94942.16;;;;
2021/04/10 01:21:50;;;;;;;3.95;2.9;;;;;;;4.2;40.80762;94942.16;;;;
2021/04/10 01:23:01;;;;;;;3.95;2.9;;;;;;;4.2;40.80762;94942.16;;;;
2021/04/10 01:24:21;;;;;;;3.95;2.9;;;;;;;4.2;40.80762;94942.16;;;;
2021/04/10 01:25:36;;;;;;;3.95;2.9;;;;;;;4.2;40.80762;94942.16;;;;
2021/04/10 01:26:45;;;;;;;3.95;2.9;;;;;;;4.2;40.80762;94942.16;;;;
2021/04/10 01:28:17;;;;;;;3.95;2.9;;;;;;;4.2;40.80762;94942.16;;;;
2021/04/10 01:29:45;;;;;;;3.45;2.55;;;;;;;4.15;41.04883;94949.47;;;;
2021/04/10 01:30:50;;;;;;;3.45;2.55;;;;;;;4.15;41.04883;94949.47;;;;
2021/04/10 01:31:52;;;;;;;3.45;2.55;;;;;;;4.15;41.04883;94949.47;;;;
2021/04/10 01:32:55;;;;;;;3.45;2.55;;;;;;;4.15;41.04883;94949.47;;;;
2021/04/10 01:34:00;;;;;;;3.45;2.55;;;;;;;4.15;41.04883;94949.47;;;;
2021/04/10 01:35:06;;;;;;;3.45;2.55;;;;;;;4.15;41.04883;94949.47;;;;
2021/04/10 01:36:09;;;;;;;3.45;2.55;;;;;;;4.15;41.04883;94949.47;;;;
2021/04/10 01:37:12;;;;;;;3.45;2.55;;;;;;;4.15;41.04883;94949.47;;;;
2021/04/10 01:38:17;;;;;;;3.45;2.55;;;;;;;4.15;41.04883;94949.47;;;;
2021/04/10 01:39:21;;;;;;;3.45;2.55;;;;;;;4.15;41.04883;94949.47;;;;
2021/04/10 01:40:23;;;;;;;4.15;2.75;;;;;;;4.27;41.13477;94945.65;;;;
2021/04/10 01:41:26;;;;;;;4.15;2.75;;;;;;;4.27;41.13477;94945.65;;;;
2021/04/10 01:42:28;;;;;;;4.15;2.75;;;;;;;4.27;41.13477;94945.65;;;;
2021/04/10 01:43:30;;;;;;;4.15;2.75;;;;;;;4.27;41.13477;94945.65;;;;
2021/04/10 01:44:34;;;;;;;4.15;2.75;;;;;;;4.27;41.13477;94945.65;;;;
2021/04/10 01:45:35;;;;;;;4.15;2.75;;;;;;;4.27;41.13477;94945.65;;;;
2021/04/10 01:46:37;;;;;;;4.15;2.75;;;;;;;4.27;41.13477;94945.65;;;;
2021/04/10 01:47:37;;;;;;;4.15;2.75;;;;;;;4.27;41.13477;94945.65;;;;
2021/04/10 01:48:39;;;;;;;4.15;2.75;;;;;;;4.27;41.13477;94945.65;;;;
2021/04/10 01:49:44;;;;;;;4.15;2.75;;;;;;;4.27;41.13477;94945.65;;;;
2021/04/10 01:50:47;;;;;;;4.15;2.75;;;;;;;4.27;41.13477;94945.65;;;;
2021/04/10 01:51:50;;;;;;;5.7;3;;;;;;;4.48;41.16504;94947.18;;;;
2021/04/10 01:52:51;;;;;;;5.7;3;;;;;;;4.48;41.16504;94947.18;;;;
2021/04/10 01:53:53;;;;;;;5.7;3;;;;;;;4.48;41.16504;94947.18;;;;
2021/04/10 01:54:55;;;;;;;5.7;3;;;;;;;4.48;41.16504;94947.18;;;;
2021/04/10 01:55:57;;;;;;;5.7;3;;;;;;;4.48;41.16504;94947.18;;;;
2021/04/10 01:56:59;;;;;;;5.7;3;;;;;;;4.48;41.16504;94947.18;;;;
2021/04/10 01:58:01;;;;;;;5.7;3;;;;;;;4.48;41.16504;94947.18;;;;
2021/04/10 01:59:02;;;;;;;5.7;3;;;;;;;4.48;41.16504;94947.18;;;;
2021/04/10 02:00:03;;;;;;;5.7;3;;;;;;;4.48;41.16504;94947.18;;;;
2021/04/10 02:01:08;;;;;;;5.7;3;;;;;;;4.48;41.16504;94947.18;;;;
2021/04/10 02:02:12;;;;;;;4.45;2.9;;;;;;;4.76;41.33008;94953.22;;;;
2021/04/10 02:03:13;;;;;;;4.45;2.9;;;;;;;4.76;41.33008;94953.22;;;;
2021/04/10 02:04:17;;;;;;;4.45;2.9;;;;;;;4.76;41.33008;94953.22;;;;
2021/04/10 02:05:19;;;;;;;4.45;2.9;;;;;;;4.76;41.33008;94953.22;;;;
2021/04/10 02:06:20;;;;;;;4.45;2.9;;;;;;;4.76;41.33008;94953.22;;;;
2021/04/10 02:07:22;;;;;;;4.45;2.9;;;;;;;4.76;41.33008;94953.22;;;;
2021/04/10 02:08:25;;;;;;;4.45;2.9;;;;;;;4.76;41.33008;94953.22;;;;
2021/04/10 02:09:27;;;;;;;4.45;2.9;;;;;;;4.76;41.33008;94953.22;;;;
2021/04/10 02:10:28;;;;;;;4.45;2.9;;;;;;;4.76;41.33008;94953.22;;;;
2021/04/10 02:11:29;;;;;;;4.45;2.9;;;;;;;4.76;41.33008;94953.22;;;;
2021/04/10 02:12:33;;;;;;;3.85;2.95;;;;;;;5.13;41.41992;94944.89;;;;
2021/04/10 02:13:34;;;;;;;3.85;2.95;;;;;;;5.13;41.41992;94944.89;;;;
2021/04/10 02:14:36;;;;;;;3.85;2.95;;;;;;;5.13;41.41992;94944.89;;;;
2021/04/10 02:15:37;;;;;;;3.85;2.95;;;;;;;5.13;41.41992;94944.89;;;;
2021/04/10 02:16:38;;;;;;;3.85;2.95;;;;;;;5.13;41.41992;94944.89;;;;
2021/04/10 02:17:40;;;;;;;3.85;2.95;;;;;;;5.13;41.41992;94944.89;;;;
2021/04/10 02:18:40;;;;;;;3.85;2.95;;;;;;;5.13;41.41992;94944.89;;;;
2021/04/10 02:19:41;;;;;;;3.85;2.95;;;;;;;5.13;41.41992;94944.89;;;;
2021/04/10 02:20:42;;;;;;;3.85;2.95;;;;;;;5.13;41.41992;94944.89;;;;
2021/04/10 02:21:43;;;;;;;3.85;2.95;;;;;;;5.13;41.41992;94944.89;;;;
2021/04/10 02:22:44;;;;;;;3.85;2.95;;;;;;;5.13;41.41992;94944.89;;;;
2021/04/10 02:23:47;;;;;;;4.05;2.6;;;;;;;5.53;41.44727;94948.66;;;;
2021/04/10 02:24:48;;;;;;;4.05;2.6;;;;;;;5.53;41.44727;94948.66;;;;
2021/04/10 02:25:49;;;;;;;4.05;2.6;;;;;;;5.53;41.44727;94948.66;;;;
2021/04/10 02:26:50;;;;;;;4.05;2.6;;;;;;;5.53;41.44727;94948.66;;;;
2021/04/10 02:27:50;;;;;;;4.05;2.6;;;;;;;5.53;41.44727;94948.66;;;;
2021/04/10 02:28:51;;;;;;;4.05;2.6;;;;;;;5.53;41.44727;94948.66;;;;
2021/04/10 02:29:51;;;;;;;4.05;2.6;;;;;;;5.53;41.44727;94948.66;;;;
2021/04/10 02:30:52;;;;;;;4.05;2.6;;;;;;;5.53;41.44727;94948.66;;;;
2021/04/10 02:31:53;;;;;;;4.05;2.6;;;;;;;5.53;41.44727;94948.66;;;;
2021/04/10 02:33:02;;;;;;;4.05;2.6;;;;;;;5.53;41.44727;94948.66;;;;
2021/04/10 02:34:08;;;;;;;5.6;2.85;;;;;;;5.85;41.38184;94946.86;;;;
2021/04/10 02:35:17;;;;;;;5.6;2.85;;;;;;;5.85;41.38184;94946.86;;;;
2021/04/10 02:36:24;;;;;;;5.6;2.85;;;;;;;5.85;41.38184;94946.86;;;;
2021/04/10 02:37:26;;;;;;;5.6;2.85;;;;;;;5.85;41.38184;94946.86;;;;
2021/04/10 02:38:28;;;;;;;5.6;2.85;;;;;;;5.85;41.38184;94946.86;;;;
2021/04/10 02:39:32;;;;;;;5.6;2.85;;;;;;;5.85;41.38184;94946.86;;;;
2021/04/10 02:40:34;;;;;;;5.6;2.85;;;;;;;5.85;41.38184;94946.86;;;;
2021/04/10 02:41:38;;;;;;;5.6;2.85;;;;;;;5.85;41.38184;94946.86;;;;
2021/04/10 02:42:41;;;;;;;5.6;2.85;;;;;;;5.85;41.38184;94946.86;;;;
2021/04/10 02:43:46;;;;;;;5.6;2.85;;;;;;;5.85;41.38184;94946.86;;;;
2021/04/10 02:44:52;;;;;;;6.050001;3;;;;;;;5.92;41.60156;94942.28;;;;
2021/04/10 02:45:54;;;;;;;6.050001;3;;;;;;;5.92;41.60156;94942.28;;;;
2021/04/10 02:46:59;;;;;;;6.050001;3;;;;;;;5.92;41.60156;94942.28;;;;
2021/04/10 02:48:05;;;;;;;6.050001;3;;;;;;;5.92;41.60156;94942.28;;;;
2021/04/10 02:49:08;;;;;;;6.050001;3;;;;;;;5.92;41.60156;94942.28;;;;
2021/04/10 02:50:12;;;;;;;6.050001;3;;;;;;;5.92;41.60156;94942.28;;;;
2021/04/10 02:51:16;;;;;;;6.050001;3;;;;;;;5.92;41.60156;94942.28;;;;
2021/04/10 02:52:20;;;;;;;6.050001;3;;;;;;;5.92;41.60156;94942.28;;;;
2021/04/10 02:53:28;;;;;;;6.050001;3;;;;;;;5.92;41.60156;94942.28;;;;
2021/04/10 02:54:34;;;;;;;6.050001;3;;;;;;;5.92;41.60156;94942.28;;;;
2021/04/10 02:55:38;;;;;;;5.600001;3;;;;;;;5.9;42.46582;94937.69;;;;
2021/04/10 02:56:44;;;;;;;5.600001;3;;;;;;;5.9;42.46582;94937.69;;;;
2021/04/10 02:57:50;;;;;;;5.600001;3;;;;;;;5.9;42.46582;94937.69;;;;
2021/04/10 02:58:52;;;;;;;5.600001;3;;;;;;;5.9;42.46582;94937.69;;;;
2021/04/10 02:59:55;;;;;;;5.600001;3;;;;;;;5.9;42.46582;94937.69;;;;
2021/04/10 03:00:59;;;;;;;5.600001;3;;;;;;;5.9;42.46582;94937.69;;;;
2021/04/10 03:01:59;;;;;;;5.600001;3;;;;;;;5.9;42.46582;94937.69;;;;
2021/04/10 03:03:02;;;;;;;5.600001;3;;;;;;;5.9;42.46582;94937.69;;;;
2021/04/10 03:04:04;;;;;;;5.600001;3;;;;;;;5.9;42.46582;94937.69;;;;
2021/04/10 03:05:06;;;;;;;5.600001;3;;;;;;;5.9;42.46582;94937.69;;;;
2021/04/10 03:06:11;;;;;;;4.4;2.85;;;;;;;5.99;42.69922;94940.79;;;;
2021/04/10 03:07:12;;;;;;;4.4;2.85;;;;;;;5.99;42.69922;94940.79;;;;
2021/04/10 03:08:14;;;;;;;4.4;2.85;;;;;;;5.99;42.69922;94940.79;;;;
2021/04/10 03:09:17;;;;;;;4.4;2.85;;;;;;;5.99;42.69922;94940.79;;;;
2021/04/10 03:10:18;;;;;;;4.4;2.85;;;;;;;5.99;42.69922;94940.79;;;;
2021/04/10 03:11:19;;;;;;;4.4;2.85;;;;;;;5.99;42.69922;94940.79;;;;
2021/04/10 03:12:20;;;;;;;4.4;2.85;;;;;;;5.99;42.69922;94940.79;;;;
2021/04/10 03:13:21;;;;;;;4.4;2.85;;;;;;;5.99;42.69922;94940.79;;;;
2021/04/10 03:14:23;;;;;;;4.4;2.85;;;;;;;5.99;42.69922;94940.79;;;;
2021/04/10 03:15:24;;;;;;;4.4;2.85;;;;;;;5.99;42.69922;94940.79;;;;
2021/04/10 03:16:25;;;;;;;4.4;2.85;;;;;;;5.99;42.69922;94940.79;;;;
2021/04/10 03:17:28;;;;;;;4.45;2.7;;;;;;;5.94;43.02539;94942.89;;;;
2021/04/10 03:18:30;;;;;;;4.45;2.7;;;;;;;5.94;43.02539;94942.89;;;;
2021/04/10 03:19:32;;;;;;;4.45;2.7;;;;;;;5.94;43.02539;94942.89;;;;
2021/04/10 03:20:35;;;;;;;4.45;2.7;;;;;;;5.94;43.02539;94942.89;;;;
2021/04/10 03:21:37;;;;;;;4.45;2.7;;;;;;;5.94;43.02539;94942.89;;;;
2021/04/10 03:22:38;;;;;;;4.45;2.7;;;;;;;5.94;43.02539;94942.89;;;;
2021/04/10 03:23:42;;;;;;;4.45;2.7;;;;;;;5.94;43.02539;94942.89;;;;
2021/04/10 03:24:42;;;;;;;4.45;2.7;;;;;;;5.94;43.02539;94942.89;;;;
2021/04/10 03:25:43;;;;;;;4.45;2.7;;;;;;;5.94;43.02539;94942.89;;;;
2021/04/10 03:26:44;;;;;;;4.45;2.7;;;;;;;5.94;43.02539;94942.89;;;;
2021/04/10 03:27:46;;;;;;;4.149999;2.9;;;;;;;5.87;43.34961;94940.26;;;;
2021/04/10 03:28:47;;;;;;;4.149999;2.9;;;;;;;5.87;43.34961;94940.26;;;;
2021/04/10 03:29:49;;;;;;;4.149999;2.9;;;;;;;5.87;43.34961;94940.26;;;;
2021/04/10 03:30:50;;;;;;;4.149999;2.9;;;;;;;5.87;43.34961;94940.26;;;;
2021/04/10 03:31:51;;;;;;;4.149999;2.9;;;;;;;5.87;43.34961;94940.26;;;;
2021/04/10 03:32:52;;;;;;;4.149999;2.9;;;;;;;5.87;43.34961;94940.26;;;;
2021/04/10 03:33:52;;;;;;;4.149999;2.9;;;;;;;5.87;43.34961;94940.26;;;;
2021/04/10 03:34:53;;;;;;;4.149999;2.9;;;;;;;5.87;43.34961;94940.26;;;;
2021/04/10 03:35:55;;;;;;;4.149999;2.9;;;;;;;5.87;43.34961;94940.26;;;;
2021/04/10 03:36:56;;;;;;;4.149999;2.9;;;;;;;5.87;43.34961;94940.26;;;;
2021/04/10 03:37:57;;;;;;;3.9;3.05;;;;;;;5.78;43.37207;94943.78;;;;
2021/04/10 03:38:58;;;;;;;3.9;3.05;;;;;;;5.78;43.37207;94943.78;;;;
2021/04/10 03:39:58;;;;;;;3.9;3.05;;;;;;;5.78;43.37207;94943.78;;;;
2021/04/10 03:41:00;;;;;;;3.9;3.05;;;;;;;5.78;43.37207;94943.78;;;;
2021/04/10 03:42:05;;;;;;;3.9;3.05;;;;;;;5.78;43.37207;94943.78;;;;
2021/04/10 03:43:08;;;;;;;3.9;3.05;;;;;;;5.78;43.37207;94943.78;;;;
2021/04/10 03:44:08;;;;;;;3.9;3.05;;;;;;;5.78;43.37207;94943.78;;;;
2021/04/10 03:45:09;;;;;;;3.9;3.05;;;;;;;5.78;43.37207;94943.78;;;;
2021/04/10 03:46:12;;;;;;;3.9;3.05;;;;;;;5.78;43.37207;94943.78;;;;
2021/04/10 03:47:12;;;;;;;3.9;3.05;;;;;;;5.78;43.37207;94943.78;;;;
2021/04/10 03:48:13;;;;;;;3.9;3.05;;;;;;;5.78;43.37207;94943.78;;;;
2021/04/10 03:49:14;;;;;;;5.85;2.95;;;;;;;5.67;43.92773;94954.25;;;;
2021/04/10 03:50:14;;;;;;;5.85;2.95;;;;;;;5.67;43.92773;94954.25;;;;
2021/04/10 03:51:15;;;;;;;5.85;2.95;;;;;;;5.67;43.92773;94954.25;;;;
2021/04/10 03:52:15;;;;;;;5.85;2.95;;;;;;;5.67;43.92773;94954.25;;;;
2021/04/10 03:53:16;;;;;;;5.85;2.95;;;;;;;5.67;43.92773;94954.25;;;;
2021/04/10 03:54:16;;;;;;;5.85;2.95;;;;;;;5.67;43.92773;94954.25;;;;
2021/04/10 03:55:17;;;;;;;5.85;2.95;;;;;;;5.67;43.92773;94954.25;;;;
2021/04/10 03:56:18;;;;;;;5.85;2.95;;;;;;;5.67;43.92773;94954.25;;;;
2021/04/10 03:57:18;;;;;;;5.85;2.95;;;;;;;5.67;43.92773;94954.25;;;;
2021/04/10 03:58:19;;;;;;;5.85;2.95;;;;;;;5.67;43.92773;94954.25;;;;
2021/04/10 03:59:19;;;;;;;4.9;3.3;;;;;;;5.77;43.92773;94951.53;;;;
2021/04/10 04:00:20;;;;;;;4.9;3.3;;;;;;;5.77;43.92773;94951.53;;;;
2021/04/10 04:01:21;;;;;;;4.9;3.3;;;;;;;5.77;43.92773;94951.53;;;;
2021/04/10 04:02:22;;;;;;;4.9;3.3;;;;;;;5.77;43.92773;94951.53;;;;
2021/04/10 04:03:22;;;;;;;4.9;3.3;;;;;;;5.77;43.92773;94951.53;;;;
2021/04/10 04:04:23;;;;;;;4.9;3.3;;;;;;;5.77;43.92773;94951.53;;;;
2021/04/10 04:05:23;;;;;;;4.9;3.3;;;;;;;5.77;43.92773;94951.53;;;;
2021/04/10 04:06:24;;;;;;;4.9;3.3;;;;;;;5.77;43.92773;94951.53;;;;
2021/04/10 04:07:25;;;;;;;4.9;3.3;;;;;;;5.77;43.92773;94951.53;;;;
2021/04/10 04:08:25;;;;;;;4.9;3.3;;;;;;;5.77;43.92773;94951.53;;;;
2021/04/10 04:09:26;;;;;;;4.9;3.3;;;;;;;5.77;43.92773;94951.53;;;;
2021/04/10 04:10:26;;;;;;;4.55;3.2;;;;;;;5.79;44.01465;94959.22;;;;
2021/04/10 04:11:27;;;;;;;4.55;3.2;;;;;;;5.79;44.01465;94959.22;;;;
2021/04/10 04:12:27;;;;;;;4.55;3.2;;;;;;;5.79;44.01465;94959.22;;;;
2021/04/10 04:13:28;;;;;;;4.55;3.2;;;;;;;5.79;44.01465;94959.22;;;;
2021/04/10 04:14:29;;;;;;;4.55;3.2;;;;;;;5.79;44.01465;94959.22;;;;
2021/04/10 04:15:29;;;;;;;4.55;3.2;;;;;;;5.79;44.01465;94959.22;;;;
2021/04/10 04:16:30;;;;;;;4.55;3.2;;;;;;;5.79;44.01465;94959.22;;;;
2021/04/10 04:17:30;;;;;;;4.55;3.2;;;;;;;5.79;44.01465;94959.22;;;;
2021/04/10 04:18:31;;;;;;;4.55;3.2;;;;;;;5.79;44.01465;94959.22;;;;
2021/04/10 04:19:31;;;;;;;4.55;3.2;;;;;;;5.79;44.01465;94959.22;;;;
2021/04/10 04:20:32;;;;;;;4.55;3.2;;;;;;;5.79;44.01465;94959.22;;;;
2021/04/10 04:21:32;;;;;;;5.25;3.45;;;;;;;5.72;44.24316;94961.11;;;;
2021/04/10 04:22:33;;;;;;;5.25;3.45;;;;;;;5.72;44.24316;94961.11;;;;
2021/04/10 04:23:33;;;;;;;5.25;3.45;;;;;;;5.72;44.24316;94961.11;;;;
2021/04/10 04:24:34;;;;;;;5.25;3.45;;;;;;;5.72;44.24316;94961.11;;;;
2021/04/10 04:25:34;;;;;;;5.25;3.45;;;;;;;5.72;44.24316;94961.11;;;;
2021/04/10 04:26:35;;;;;;;5.25;3.45;;;;;;;5.72;44.24316;94961.11;;;;
2021/04/10 04:27:35;;;;;;;5.25;3.45;;;;;;;5.72;44.24316;94961.11;;;;
2021/04/10 04:28:36;;;;;;;5.25;3.45;;;;;;;5.72;44.24316;94961.11;;;;
2021/04/10 04:29:37;;;;;;;5.25;3.45;;;;;;;5.72;44.24316;94961.11;;;;
2021/04/10 04:30:37;;;;;;;5.25;3.45;;;;;;;5.72;44.24316;94961.11;;;;
2021/04/10 04:31:38;;;;;;;5.5;3.25;;;;;;;5.67;44.79297;94969.39;;;;
2021/04/10 04:32:38;;;;;;;5.5;3.25;;;;;;;5.67;44.79297;94969.39;;;;
2021/04/10 04:33:39;;;;;;;5.5;3.25;;;;;;;5.67;44.79297;94969.39;;;;
2021/04/10 04:34:39;;;;;;;5.5;3.25;;;;;;;5.67;44.79297;94969.39;;;;
2021/04/10 04:35:40;;;;;;;5.5;3.25;;;;;;;5.67;44.79297;94969.39;;;;
2021/04/10 04:36:40;;;;;;;5.5;3.25;;;;;;;5.67;44.79297;94969.39;;;;
2021/04/10 04:37:41;;;;;;;5.5;3.25;;;;;;;5.67;44.79297;94969.39;;;;
2021/04/10 04:38:42;;;;;;;5.5;3.25;;;;;;;5.67;44.79297;94969.39;;;;
2021/04/10 04:39:42;;;;;;;5.5;3.25;;;;;;;5.67;44.79297;94969.39;;;;
2021/04/10 04:40:43;;;;;;;5.5;3.25;;;;;;;5.67;44.79297;94969.39;;;;
2021/04/10 04:41:43;;;;;;;5.5;3.25;;;;;;;5.67;44.79297;94969.39;;;;
2021/04/10 04:42:44;;;;;;;6.5;3.1;;;;;;;5.77;44.96289;94966.26;;;;
2021/04/10 04:43:44;;;;;;;6.5;3.1;;;;;;;5.77;44.96289;94966.26;;;;
2021/04/10 04:44:45;;;;;;;6.5;3.1;;;;;;;5.77;44.96289;94966.26;;;;
2021/04/10 04:45:46;;;;;;;6.5;3.1;;;;;;;5.77;44.96289;94966.26;;;;
2021/04/10 04:46:46;;;;;;;6.5;3.1;;;;;;;5.77;44.96289;94966.26;;;;
2021/04/10 04:47:46;;;;;;;6.5;3.1;;;;;;;5.77;44.96289;94966.26;;;;
2021/04/10 04:48:47;;;;;;;6.5;3.1;;;;;;;5.77;44.96289;94966.26;;;;
2021/04/10 04:49:47;;;;;;;6.5;3.1;;;;;;;5.77;44.96289;94966.26;;;;
2021/04/10 04:50:48;;;;;;;6.5;3.1;;;;;;;5.77;44.96289;94966.26;;;;
2021/04/10 04:51:49;;;;;;;6.5;3.1;;;;;;;5.77;44.96289;94966.26;;;;
2021/04/10 04:52:52;;;;;;;5.150001;3.25;;;;;;;5.88;44.99609;94979.02;;;;
2021/04/10 04:53:53;;;;;;;5.150001;3.25;;;;;;;5.88;44.99609;94979.02;;;;
2021/04/10 04:54:53;;;;;;;5.150001;3.25;;;;;;;5.88;44.99609;94979.02;;;;
2021/04/10 04:55:55;;;;;;;5.150001;3.25;;;;;;;5.88;44.99609;94979.02;;;;
2021/04/10 04:56:55;;;;;;;5.150001;3.25;;;;;;;5.88;44.99609;94979.02;;;;
2021/04/10 04:57:56;;;;;;;5.150001;3.25;;;;;;;5.88;44.99609;94979.02;;;;
2021/04/10 04:58:56;;;;;;;5.150001;3.25;;;;;;;5.88;44.99609;94979.02;;;;
2021/04/10 04:59:57;;;;;;;5.150001;3.25;;;;;;;5.88;44.99609;94979.02;;;;
2021/04/10 05:00:57;;;;;;;5.150001;3.25;;;;;;;5.88;44.99609;94979.02;;;;
2021/04/10 05:01:58;;;;;;;5.150001;3.25;;;;;;;5.88;44.99609;94979.02;;;;
2021/04/10 05:02:58;;;;;;;5.150001;3.25;;;;;;;5.88;44.99609;94979.02;;;;
2021/04/10 05:03:59;;;;;;;4.400001;3;;;;;;;5.9;45.11426;95000.23;;;;
2021/04/10 05:05:00;;;;;;;4.400001;3;;;;;;;5.9;45.11426;95000.23;;;;
2021/04/10 05:06:00;;;;;;;4.400001;3;;;;;;;5.9;45.11426;95000.23;;;;
2021/04/10 05:07:01;;;;;;;4.400001;3;;;;;;;5.9;45.11426;95000.23;;;;
2021/04/10 05:08:01;;;;;;;4.400001;3;;;;;;;5.9;45.11426;95000.23;;;;
2021/04/10 05:09:02;;;;;;;4.400001;3;;;;;;;5.9;45.11426;95000.23;;;;
2021/04/10 05:10:03;;;;;;;4.400001;3;;;;;;;5.9;45.11426;95000.23;;;;
2021/04/10 05:11:05;;;;;;;4.400001;3;;;;;;;5.9;45.11426;95000.23;;;;
2021/04/10 05:12:05;;;;;;;4.400001;3;;;;;;;5.9;45.11426;95000.23;;;;
2021/04/10 05:13:07;;;;;;;4.400001;3;;;;;;;5.9;45.11426;95000.23;;;;
2021/04/10 05:14:09;;;;;;;5.45;2.85;;;;;;;5.96;45.10059;95007.81;;;;
2021/04/10 05:15:09;;;;;;;5.45;2.85;;;;;;;5.96;45.10059;95007.81;;;;
2021/04/10 05:16:11;;;;;;;5.45;2.85;;;;;;;5.96;45.10059;95007.81;;;;
2021/04/10 05:17:12;;;;;;;5.45;2.85;;;;;;;5.96;45.10059;95007.81;;;;
2021/04/10 05:18:12;;;;;;;5.45;2.85;;;;;;;5.96;45.10059;95007.81;;;;
2021/04/10 05:19:12;;;;;;;5.45;2.85;;;;;;;5.96;45.10059;95007.81;;;;
2021/04/10 05:20:13;;;;;;;5.45;2.85;;;;;;;5.96;45.10059;95007.81;;;;
2021/04/10 05:21:14;;;;;;;5.45;2.85;;;;;;;5.96;45.10059;95007.81;;;;
2021/04/10 05:22:14;;;;;;;5.45;2.85;;;;;;;5.96;45.10059;95007.81;;;;
2021/04/10 05:23:15;;;;;;;5.45;2.85;;;;;;;5.96;45.10059;95007.81;;;;
2021/04/10 05:24:19;;;;;;;5.45;2.85;;;;;;;5.96;45.10059;95007.81;;;;
2021/04/10 05:25:19;;;;;;;5.6;3.35;;;;;;;6.14;45.08691;95019.05;;;;
2021/04/10 05:26:20;;;;;;;5.6;3.35;;;;;;;6.14;45.08691;95019.05;;;;
2021/04/10 05:27:21;;;;;;;5.6;3.35;;;;;;;6.14;45.08691;95019.05;;;;
2021/04/10 05:28:21;;;;;;;5.6;3.35;;;;;;;6.14;45.08691;95019.05;;;;
2021/04/10 05:29:22;;;;;;;5.6;3.35;;;;;;;6.14;45.08691;95019.05;;;;
2021/04/10 05:30:23;;;;;;;5.6;3.35;;;;;;;6.14;45.08691;95019.05;;;;
2021/04/10 05:31:24;;;;;;;5.6;3.35;;;;;;;6.14;45.08691;95019.05;;;;
2021/04/10 05:32:24;;;;;;;5.6;3.35;;;;;;;6.14;45.08691;95019.05;;;;
2021/04/10 05:33:25;;;;;;;5.6;3.35;;;;;;;6.14;45.08691;95019.05;;;;
2021/04/10 05:34:25;;;;;;;5.6;3.35;;;;;;;6.14;45.08691;95019.05;;;;
2021/04/10 05:35:26;;;;;;;5.35;3.45;;;;;;;6.37;45.00391;95017.14;;;;
2021/04/10 05:36:27;;;;;;;5.35;3.45;;;;;;;6.37;45.00391;95017.14;;;;
2021/04/10 05:37:28;;;;;;;5.35;3.45;;;;;;;6.37;45.00391;95017.14;;;;
2021/04/10 05:38:28;;;;;;;5.35;3.45;;;;;;;6.37;45.00391;95017.14;;;;
2021/04/10 05:39:29;;;;;;;5.35;3.45;;;;;;;6.37;45.00391;95017.14;;;;
2021/04/10 05:40:30;;;;;;;5.35;3.45;;;;;;;6.37;45.00391;95017.14;;;;
2021/04/10 05:41:30;;;;;;;5.35;3.45;;;;;;;6.37;45.00391;95017.14;;;;
2021/04/10 05:42:31;;;;;;;5.35;3.45;;;;;;;6.37;45.00391;95017.14;;;;
2021/04/10 05:43:32;;;;;;;5.35;3.45;;;;;;;6.37;45.00391;95017.14;;;;
2021/04/10 05:44:32;;;;;;;5.35;3.45;;;;;;;6.37;45.00391;95017.14;;;;
2021/04/10 05:45:33;;;;;;;5.35;3.45;;;;;;;6.37;45.00391;95017.14;;;;
2021/04/10 05:46:34;;;;;;;5.599999;3.05;;;;;;;6.74;44.84961;95019.87;;;;
2021/04/10 05:47:34;;;;;;;5.599999;3.05;;;;;;;6.74;44.84961;95019.87;;;;
2021/04/10 05:48:35;;;;;;;5.599999;3.05;;;;;;;6.74;44.84961;95019.87;;;;
2021/04/10 05:49:35;;;;;;;5.599999;3.05;;;;;;;6.74;44.84961;95019.87;;;;
2021/04/10 05:50:36;;;;;;;5.599999;3.05;;;;;;;6.74;44.84961;95019.87;;;;
2021/04/10 05:51:36;;;;;;;5.599999;3.05;;;;;;;6.74;44.84961;95019.87;;;;
2021/04/10 05:52:37;;;;;;;5.599999;3.05;;;;;;;6.74;44.84961;95019.87;;;;
2021/04/10 05:53:41;;;;;;;5.599999;3.05;;;;;;;6.74;44.84961;95019.87;;;;
2021/04/10 05:54:41;;;;;;;5.599999;3.05;;;;;;;6.74;44.84961;95019.87;;;;
2021/04/10 05:55:42;;;;;;;5.599999;3.05;;;;;;;6.74;44.84961;95019.87;;;;
2021/04/10 05:56:43;;;;;;;5.199999;3.25;;;;;;;7.13;44.69922;95013.64;;;;